createdAt,value
2018-09-15T00:00:56.085Z,72.97
2018-09-15T00:03:25.204Z,72.10
2018-09-15T00:05:54.101Z,72.38
2018-09-15T00:08:22.741Z,72.02
2018-09-15T00:10:51.421Z,71.47
2018-09-15T00:13:21.143Z,72.71
2018-09-15T00:15:50.076Z,71.60
2018-09-15T00:18:19.191Z,72.71
2018-09-15T00:20:47.833Z,74.12
2018-09-15T00:23:16.526Z,72.55
2018-09-15T00:25:45.164Z,73.32
2018-09-15T00:28:13.915Z,73.32
2018-09-15T00:30:43.148Z,73.97
2018-09-15T00:33:11.905Z,75.02
2018-09-15T00:35:40.587Z,73.84
2018-09-15T00:38:09.268Z,73.91
2018-09-15T00:40:37.912Z,73.16
2018-09-15T00:43:06.616Z,71.84
2018-09-15T00:45:35.223Z,72.10
2018-09-15T00:48:03.899Z,72.13
2018-09-15T00:50:32.556Z,73.17
2018-09-15T00:53:01.215Z,73.53
2018-09-15T00:55:29.830Z,74.70
2018-09-15T00:57:58.499Z,75.25
2018-09-15T01:00:27.250Z,74.68
2018-09-15T01:02:55.987Z,74.40
2018-09-15T01:05:24.678Z,73.45
2018-09-15T01:07:53.325Z,74.10
2018-09-15T01:10:22.064Z,73.27
2018-09-15T01:12:50.718Z,73.27
2018-09-15T01:15:19.416Z,74.06
2018-09-15T01:17:48.099Z,74.08
2018-09-15T01:20:16.835Z,73.60
2018-09-15T01:22:45.514Z,74.21
2018-09-15T01:25:14.192Z,74.42
2018-09-15T01:27:42.880Z,74.23
2018-09-15T01:30:11.566Z,74.61
2018-09-15T01:32:40.202Z,74.55
2018-09-15T01:35:08.893Z,74.68
2018-09-15T01:37:37.545Z,74.83
2018-09-15T01:40:06.230Z,74.67
2018-09-15T01:42:34.871Z,74.68
2018-09-15T01:45:03.547Z,74.11
2018-09-15T01:47:32.235Z,73.80
2018-09-15T01:50:00.892Z,74.81
2018-09-15T01:52:29.619Z,72.99
2018-09-15T01:54:58.301Z,72.51
2018-09-15T01:57:27.075Z,73.56
2018-09-15T01:59:55.756Z,73.65
2018-09-15T02:02:24.403Z,73.29
2018-09-15T02:04:53.095Z,72.83
2018-09-15T02:07:21.758Z,73.24
2018-09-15T02:09:50.438Z,72.63
2018-09-15T02:12:19.069Z,73.42
2018-09-15T02:14:47.726Z,75.13
2018-09-15T02:17:16.392Z,75.08
2018-09-15T02:19:45.060Z,74.93
2018-09-15T02:22:13.728Z,76.39
2018-09-15T02:24:42.384Z,76.87
2018-09-15T02:27:11.038Z,77.10
2018-09-15T02:29:39.716Z,76.97
2018-09-15T02:32:08.415Z,76.66
2018-09-15T02:34:37.060Z,76.47
2018-09-15T02:37:05.835Z,76.02
2018-09-15T02:39:34.461Z,76.47
2018-09-15T02:42:03.106Z,76.29
2018-09-15T02:44:31.786Z,75.94
2018-09-15T02:47:00.431Z,76.92
2018-09-15T02:49:29.057Z,75.65
2018-09-15T02:51:57.726Z,75.01
2018-09-15T02:54:26.389Z,75.57
2018-09-15T02:56:55.019Z,74.48
2018-09-15T02:59:23.659Z,74.90
2018-09-15T03:01:52.340Z,75.20
2018-09-15T03:04:21.108Z,74.98
2018-09-15T03:06:49.758Z,75.66
2018-09-15T03:09:18.424Z,75.10
2018-09-15T03:11:47.068Z,75.33
2018-09-15T03:14:15.749Z,75.44
2018-09-15T03:16:44.381Z,75.77
2018-09-15T03:19:13.003Z,76.01
2018-09-15T03:21:41.654Z,75.89
2018-09-15T03:24:10.274Z,75.52
2018-09-15T03:26:38.977Z,75.78
2018-09-15T03:29:07.613Z,74.64
2018-09-15T03:31:36.324Z,76.26
2018-09-15T03:34:05.015Z,76.35
2018-09-15T03:36:33.629Z,76.24
2018-09-15T03:39:02.282Z,78.00
2018-09-15T03:41:31.009Z,78.04
2018-09-15T03:43:59.581Z,76.52
2018-09-15T03:46:28.197Z,76.04
2018-09-15T03:48:56.891Z,75.34
2018-09-15T03:51:25.536Z,75.25
2018-09-15T03:53:54.179Z,74.99
2018-09-15T03:56:22.867Z,74.73
2018-09-15T03:58:51.564Z,74.81
2018-09-15T04:01:20.216Z,75.23
2018-09-15T04:03:48.875Z,75.44
2018-09-15T04:06:17.556Z,74.94
2018-09-15T04:08:46.185Z,74.85
2018-09-15T04:11:14.864Z,74.91
2018-09-15T04:13:43.511Z,74.71
2018-09-15T04:16:12.185Z,76.73
2018-09-15T04:18:40.827Z,77.92
2018-09-15T04:21:09.532Z,78.18
2018-09-15T04:23:38.172Z,77.77
2018-09-15T04:26:06.844Z,76.59
2018-09-15T04:28:35.533Z,76.38
2018-09-15T04:31:04.215Z,75.53
2018-09-15T04:33:33.038Z,74.98
2018-09-15T04:36:01.751Z,74.89
2018-09-15T04:38:30.407Z,73.23
2018-09-15T04:40:59.110Z,73.78
2018-09-15T04:43:27.772Z,72.99
2018-09-15T04:45:56.428Z,72.26
2018-09-15T04:48:25.080Z,72.13
2018-09-15T04:50:53.764Z,70.97
2018-09-15T04:53:22.457Z,69.66
2018-09-15T04:55:51.409Z,69.43
2018-09-15T04:58:20.787Z,68.25
2018-09-15T05:00:49.493Z,68.33
2018-09-15T05:03:18.265Z,66.74
2018-09-15T05:05:46.901Z,66.60
2018-09-15T05:08:15.599Z,66.00
2018-09-15T05:10:44.267Z,64.40
2018-09-15T05:13:13.021Z,64.16
2018-09-15T05:15:41.704Z,63.61
2018-09-15T05:18:10.322Z,62.57
2018-09-15T05:20:38.939Z,62.29
2018-09-15T05:23:07.724Z,60.93
2018-09-15T05:25:36.367Z,59.00
2018-09-15T05:28:05.023Z,58.21
2018-09-15T05:30:33.668Z,58.82
2018-09-15T05:33:02.305Z,58.69
2018-09-15T05:35:30.975Z,58.77
2018-09-15T05:37:59.788Z,58.21
2018-09-15T05:40:28.415Z,57.93
2018-09-15T05:42:57.099Z,57.38
2018-09-15T05:45:26.126Z,57.23
2018-09-15T05:47:54.840Z,56.79
2018-09-15T05:50:23.499Z,55.59
2018-09-15T05:52:52.179Z,55.14
2018-09-15T05:55:20.901Z,55.60
2018-09-15T05:57:49.598Z,53.92
2018-09-15T06:00:23.108Z,53.25
2018-09-15T06:02:51.780Z,53.61
2018-09-15T06:05:20.438Z,53.65
2018-09-15T06:07:49.236Z,53.04
2018-09-15T06:10:17.845Z,52.84
2018-09-15T06:12:46.513Z,51.42
2018-09-15T06:15:15.168Z,51.06
2018-09-15T06:17:43.840Z,51.72
2018-09-15T06:20:12.572Z,52.40
2018-09-15T06:22:41.212Z,51.97
2018-09-15T06:25:09.888Z,50.72
2018-09-15T06:27:38.556Z,50.02
2018-09-15T06:30:11.736Z,51.12
2018-09-15T06:32:40.431Z,50.53
2018-09-15T06:35:09.228Z,50.63
2018-09-15T06:37:37.871Z,49.30
2018-09-15T06:40:06.630Z,49.40
2018-09-15T06:42:35.272Z,49.67
2018-09-15T06:45:04.043Z,49.50
2018-09-15T06:47:32.727Z,47.02
2018-09-15T06:50:01.400Z,48.23
2018-09-15T06:52:30.301Z,49.85
2018-09-15T06:54:58.992Z,49.22
2018-09-15T06:57:27.676Z,49.48
2018-09-15T06:59:56.380Z,49.30
2018-09-15T07:02:25.353Z,48.79
2018-09-15T07:04:54.063Z,47.80
2018-09-15T07:07:22.790Z,47.51
2018-09-15T07:09:51.414Z,46.87
2018-09-15T07:12:20.084Z,47.57
2018-09-15T07:14:48.753Z,46.46
2018-09-15T07:17:17.419Z,48.24
2018-09-15T07:19:46.149Z,49.30
2018-09-15T07:22:14.847Z,47.63
2018-09-15T07:24:43.469Z,48.22
2018-09-15T07:27:12.174Z,47.03
2018-09-15T07:29:40.816Z,46.77
2018-09-15T07:32:09.489Z,45.87
2018-09-15T07:34:38.279Z,45.77
2018-09-15T07:37:07.042Z,44.32
2018-09-15T07:39:35.694Z,46.27
2018-09-15T07:42:04.345Z,45.70
2018-09-15T07:44:33.021Z,46.12
2018-09-15T07:47:01.660Z,45.42
2018-09-15T07:49:30.448Z,45.51
2018-09-15T07:51:59.079Z,44.94
2018-09-15T07:54:27.728Z,44.63
2018-09-15T07:56:56.555Z,44.66
2018-09-15T07:59:25.251Z,44.51
2018-09-15T08:01:54.045Z,44.29
2018-09-15T08:04:22.677Z,43.43
2018-09-15T08:06:51.315Z,42.59
2018-09-15T08:09:20.054Z,42.58
2018-09-15T08:11:48.805Z,42.47
2018-09-15T08:14:17.447Z,41.84
2018-09-15T08:16:46.160Z,41.57
2018-09-15T08:19:14.938Z,40.01
2018-09-15T08:21:43.602Z,41.01
2018-09-15T08:24:12.299Z,42.87
2018-09-15T08:26:40.933Z,43.28
2018-09-15T08:29:09.555Z,44.39
2018-09-15T08:31:38.220Z,45.27
2018-09-15T08:34:06.927Z,44.51
2018-09-15T08:36:35.684Z,44.21
2018-09-15T08:39:05.156Z,44.35
2018-09-15T08:41:33.875Z,43.83
2018-09-15T08:44:02.540Z,43.87
2018-09-15T08:46:31.318Z,43.50
2018-09-15T08:48:59.977Z,44.01
2018-09-15T08:51:28.686Z,43.48
2018-09-15T08:53:57.378Z,43.55
2018-09-15T08:56:26.015Z,43.64
2018-09-15T08:58:54.755Z,43.45
2018-09-15T09:01:23.538Z,44.07
2018-09-15T09:03:52.315Z,42.86
2018-09-15T09:06:20.935Z,44.11
2018-09-15T09:08:49.667Z,43.32
2018-09-15T09:11:18.470Z,41.98
2018-09-15T09:13:47.230Z,42.27
2018-09-15T09:16:16.004Z,41.19
2018-09-15T09:18:45.072Z,41.86
2018-09-15T09:21:13.752Z,43.18
2018-09-15T09:23:42.479Z,43.15
2018-09-15T09:26:11.222Z,41.92
2018-09-15T09:28:39.864Z,40.53
2018-09-15T09:31:08.779Z,39.18
2018-09-15T09:33:37.508Z,38.20
2018-09-15T09:36:06.257Z,35.68
2018-09-15T09:38:35.016Z,35.13
2018-09-15T09:41:03.747Z,35.14
2018-09-15T09:43:32.993Z,34.69
2018-09-15T09:46:04.010Z,33.97
2018-09-15T09:48:32.674Z,34.49
2018-09-15T09:51:01.472Z,34.37
2018-09-15T09:53:30.527Z,33.17
2018-09-15T09:55:59.258Z,33.97
2018-09-15T09:58:28.525Z,32.14
2018-09-15T10:00:58.306Z,32.03
2018-09-15T10:03:27.502Z,32.67
2018-09-15T10:05:56.615Z,31.95
2018-09-15T10:08:25.286Z,32.61
2018-09-15T10:10:54.731Z,31.81
2018-09-15T10:13:24.737Z,31.45
2018-09-15T10:15:53.505Z,31.46
2018-09-15T10:18:22.363Z,31.04
2018-09-15T10:20:51.052Z,30.87
2018-09-15T10:23:19.793Z,30.76
2018-09-15T10:25:48.508Z,31.58
2018-09-15T10:28:17.563Z,31.47
2018-09-15T10:30:46.212Z,30.43
2018-09-15T10:33:15.127Z,30.75
2018-09-15T10:35:43.933Z,29.79
2018-09-15T10:38:12.966Z,30.31
2018-09-15T10:40:42.187Z,31.69
2018-09-15T10:43:10.947Z,32.85
2018-09-15T10:45:39.988Z,34.15
2018-09-15T10:48:08.735Z,32.87
2018-09-15T10:50:37.432Z,30.74
2018-09-15T10:53:06.174Z,30.33
2018-09-15T10:55:34.962Z,30.28
2018-09-15T10:58:03.699Z,29.51
2018-09-15T11:00:32.533Z,29.18
2018-09-15T11:03:01.187Z,28.03
2018-09-15T11:05:29.934Z,27.98
2018-09-15T11:07:58.692Z,29.13
2018-09-15T11:10:27.419Z,30.06
2018-09-15T11:12:56.187Z,30.87
2018-09-15T11:15:24.838Z,31.45
2018-09-15T11:17:53.556Z,30.05
2018-09-15T11:20:22.224Z,28.51
2018-09-15T11:22:50.920Z,27.96
2018-09-15T11:25:19.499Z,26.03
2018-09-15T11:27:48.425Z,27.04
2018-09-15T11:30:17.130Z,26.54
2018-09-15T11:32:45.819Z,26.33
2018-09-15T11:35:14.518Z,27.50
2018-09-15T11:37:43.231Z,27.92
2018-09-15T11:40:11.906Z,27.34
2018-09-15T11:42:40.843Z,27.49
2018-09-15T11:45:09.558Z,28.76
2018-09-15T11:47:38.312Z,29.58
2018-09-15T11:50:07.042Z,29.94
2018-09-15T11:52:36.598Z,30.55
2018-09-15T11:55:05.382Z,31.11
2018-09-15T11:57:34.371Z,31.98
2018-09-15T12:00:04.002Z,32.17
2018-09-15T12:02:33.607Z,32.53
2018-09-15T12:05:03.283Z,31.73
2018-09-15T12:07:32.279Z,31.73
2018-09-15T12:10:01.055Z,30.98
2018-09-15T12:12:30.175Z,31.23
2018-09-15T12:14:59.269Z,30.64
2018-09-15T12:17:28.039Z,31.99
2018-09-15T12:19:57.334Z,32.65
2018-09-15T12:22:26.053Z,33.38
2018-09-15T12:24:54.770Z,33.05
2018-09-15T12:27:23.476Z,33.95
2018-09-15T12:29:52.493Z,32.68
2018-09-15T12:32:21.372Z,33.43
2018-09-15T12:34:51.006Z,33.70
2018-09-15T12:37:19.751Z,33.72
2018-09-15T12:39:48.432Z,33.01
2018-09-15T12:42:17.190Z,33.99
2018-09-15T12:44:45.979Z,34.01
2018-09-15T12:47:14.715Z,34.46
2018-09-15T12:49:43.451Z,34.95
2018-09-15T12:52:12.501Z,34.60
2018-09-15T12:54:41.207Z,34.16
2018-09-15T12:57:09.855Z,33.87
2018-09-15T12:59:38.655Z,35.69
2018-09-15T13:02:07.383Z,34.66
2018-09-15T13:04:36.127Z,35.87
2018-09-15T13:07:04.830Z,36.31
2018-09-15T13:09:33.592Z,35.56
2018-09-15T13:12:02.341Z,36.98
2018-09-15T13:14:31.600Z,37.22
2018-09-15T13:17:00.259Z,35.99
2018-09-15T13:19:28.951Z,35.43
2018-09-15T13:21:57.984Z,34.58
2018-09-15T13:24:26.886Z,35.08
2018-09-15T13:26:55.798Z,34.70
2018-09-15T13:29:24.559Z,34.91
2018-09-15T13:31:53.298Z,35.42
2018-09-15T13:34:22.006Z,35.77
2018-09-15T13:36:50.830Z,35.67
2018-09-15T13:39:19.615Z,36.30
2018-09-15T13:41:48.339Z,35.07
2018-09-15T13:44:17.110Z,35.24
2018-09-15T13:46:45.829Z,37.38
2018-09-15T13:49:14.630Z,37.19
2018-09-15T13:51:43.302Z,37.30
2018-09-15T13:54:12.068Z,37.01
2018-09-15T13:56:40.880Z,37.86
2018-09-15T13:59:09.642Z,37.96
2018-09-15T14:01:38.302Z,38.05
2018-09-15T14:04:06.960Z,38.32
2018-09-15T14:06:35.658Z,38.59
2018-09-15T14:09:05.426Z,38.92
2018-09-15T14:11:34.109Z,39.17
2018-09-15T14:14:02.828Z,39.02
2018-09-15T14:16:31.537Z,38.06
2018-09-15T14:19:00.170Z,39.08
2018-09-15T14:21:28.925Z,38.44
2018-09-15T14:23:57.651Z,38.83
2018-09-15T14:26:26.450Z,39.28
2018-09-15T14:28:55.143Z,38.48
2018-09-15T14:31:24.871Z,39.59
2018-09-15T14:33:54.619Z,39.58
2018-09-15T14:36:23.345Z,39.67
2018-09-15T14:38:52.135Z,39.21
2018-09-15T14:41:20.909Z,39.69
2018-09-15T14:43:49.632Z,39.04
2018-09-15T14:46:18.287Z,39.95
2018-09-15T14:48:46.999Z,38.83
2018-09-15T14:51:15.689Z,39.03
2018-09-15T14:53:44.601Z,38.95
2018-09-15T14:56:13.312Z,39.68
2018-09-15T14:58:45.580Z,39.31
2018-09-15T15:01:14.474Z,39.12
2018-09-15T15:04:00.928Z,39.04
2018-09-15T15:06:29.678Z,39.33
2018-09-15T15:08:58.435Z,38.80
2018-09-15T15:11:27.221Z,39.07
2018-09-15T15:13:55.961Z,39.29
2018-09-15T15:16:24.901Z,38.80
2018-09-15T15:18:53.585Z,39.14
2018-09-15T15:21:22.260Z,39.19
2018-09-15T15:23:50.955Z,39.05
2018-09-15T15:26:19.669Z,39.64
2018-09-15T15:28:48.316Z,38.92
2018-09-15T15:31:17.016Z,39.74
2018-09-15T15:33:45.815Z,39.32
2018-09-15T15:36:14.585Z,39.29
2018-09-15T15:38:43.214Z,40.30
2018-09-15T15:41:11.986Z,40.17
2018-09-15T15:43:40.758Z,40.71
2018-09-15T15:46:09.410Z,40.81
2018-09-15T15:48:38.131Z,41.09
2018-09-15T15:51:06.949Z,41.73
2018-09-15T15:53:35.704Z,41.85
2018-09-15T15:56:04.463Z,41.83
2018-09-15T15:58:33.344Z,41.84
2018-09-15T16:01:01.874Z,42.48
2018-09-15T16:03:30.594Z,42.35
2018-09-15T16:05:59.293Z,42.57
2018-09-15T16:08:27.947Z,42.48
2018-09-15T16:10:56.728Z,42.55
2018-09-15T16:13:25.480Z,42.91
2018-09-15T16:15:54.198Z,42.72
2018-09-15T16:18:23.013Z,42.72
2018-09-15T16:20:51.694Z,42.81
2018-09-15T16:23:20.375Z,42.56
2018-09-15T16:25:49.078Z,42.68
2018-09-15T16:28:17.736Z,43.05
2018-09-15T16:30:46.484Z,44.30
2018-09-15T16:33:15.204Z,46.05
2018-09-15T16:35:43.895Z,46.58
2018-09-15T16:38:12.615Z,46.94
2018-09-15T16:40:41.512Z,48.63
2018-09-15T16:43:10.276Z,48.68
2018-09-15T16:45:38.985Z,48.42
2018-09-15T16:48:07.690Z,48.44
2018-09-15T16:50:36.348Z,48.13
2018-09-15T16:53:05.328Z,46.69
2018-09-15T16:55:34.176Z,46.34
2018-09-15T16:58:02.860Z,46.53
2018-09-15T17:00:31.672Z,47.09
2018-09-15T17:03:00.861Z,46.27
2018-09-15T17:05:29.841Z,47.34
2018-09-15T17:07:58.593Z,46.68
2018-09-15T17:10:27.336Z,46.99
2018-09-15T17:12:56.007Z,47.85
2018-09-15T17:15:24.853Z,48.38
2018-09-15T17:17:53.605Z,48.30
2018-09-15T17:20:22.583Z,49.25
2018-09-15T17:22:51.437Z,49.86
2018-09-15T17:25:20.156Z,50.44
2018-09-15T17:27:48.916Z,51.24
2018-09-15T17:30:17.647Z,51.15
2018-09-15T17:32:46.323Z,50.98
2018-09-15T17:35:14.982Z,51.69
2018-09-15T17:37:43.609Z,51.34
2018-09-15T17:40:12.269Z,51.39
2018-09-15T17:42:40.936Z,52.33
2018-09-15T17:45:09.641Z,51.81
2018-09-15T17:47:38.342Z,52.02
2018-09-15T17:50:07.010Z,52.42
2018-09-15T17:52:35.765Z,53.03
2018-09-15T17:55:04.507Z,53.85
2018-09-15T17:57:33.173Z,53.44
2018-09-15T18:00:01.865Z,54.66
2018-09-15T18:02:30.542Z,55.00
2018-09-15T18:04:59.223Z,55.42
2018-09-15T18:07:27.885Z,55.30
2018-09-15T18:09:56.590Z,55.88
2018-09-15T18:12:25.328Z,55.48
2018-09-15T18:14:54.023Z,56.33
2018-09-15T18:17:22.796Z,55.96
2018-09-15T18:19:51.437Z,55.66
2018-09-15T18:22:20.119Z,55.78
2018-09-15T18:24:48.764Z,55.89
2018-09-15T18:27:17.478Z,56.01
2018-09-15T18:29:46.200Z,56.47
2018-09-15T18:32:15.319Z,56.55
2018-09-15T18:34:44.027Z,56.78
2018-09-15T18:37:12.738Z,56.83
2018-09-15T18:39:41.394Z,57.15
2018-09-15T18:42:10.061Z,57.47
2018-09-15T18:44:38.759Z,57.29
2018-09-15T18:47:07.442Z,58.00
2018-09-15T18:49:36.147Z,57.62
2018-09-15T18:52:04.852Z,57.27
2018-09-15T18:54:33.680Z,57.31
2018-09-15T18:57:02.351Z,57.38
2018-09-15T18:59:31.029Z,57.36
2018-09-15T19:01:59.671Z,57.51
2018-09-15T19:04:28.347Z,58.37
2018-09-15T19:06:56.995Z,58.52
2018-09-15T19:09:25.760Z,58.76
2018-09-15T19:11:54.514Z,57.82
2018-09-15T19:14:23.401Z,58.82
2018-09-15T19:16:52.184Z,58.80
2018-09-15T19:19:20.967Z,57.88
2018-09-15T19:21:49.984Z,57.92
2018-09-15T19:24:18.735Z,58.01
2018-09-15T19:26:47.514Z,58.86
2018-09-15T19:29:16.089Z,58.77
2018-09-15T19:31:44.766Z,59.52
2018-09-15T19:34:13.576Z,59.80
2018-09-15T19:36:42.306Z,59.76
2018-09-15T19:39:13.046Z,59.33
2018-09-15T19:41:41.884Z,59.59
2018-09-15T19:44:10.807Z,59.72
2018-09-15T19:46:39.943Z,59.91
2018-09-15T19:49:09.585Z,59.93
2018-09-15T19:51:38.342Z,59.78
2018-09-15T19:54:07.232Z,60.19
2018-09-15T19:56:35.908Z,60.18
2018-09-15T19:59:04.669Z,60.51
2018-09-15T20:01:33.591Z,61.42
2018-09-15T20:04:02.349Z,61.11
2018-09-15T20:06:31.039Z,61.46
2018-09-15T20:08:59.674Z,61.51
2018-09-15T20:11:28.334Z,61.76
2018-09-15T20:13:57.023Z,61.81
2018-09-15T20:16:24.390Z,61.60
2018-09-15T20:18:51.746Z,61.59
2018-09-15T20:21:19.112Z,61.58
2018-09-15T20:23:47.800Z,62.35
2018-09-15T20:26:16.503Z,61.84
2018-09-15T20:28:45.250Z,62.62
2018-09-15T20:31:13.967Z,62.43
2018-09-15T20:33:42.606Z,61.95
2018-09-15T20:36:11.291Z,62.27
2018-09-15T20:38:39.989Z,62.15
2018-09-15T20:41:08.728Z,62.70
2018-09-15T20:43:37.446Z,62.68
2018-09-15T20:46:06.216Z,62.08
2018-09-15T20:48:34.886Z,62.71
2018-09-15T20:51:03.671Z,62.14
2018-09-15T20:53:32.303Z,62.96
2018-09-15T20:56:01.044Z,62.87
2018-09-15T20:58:29.731Z,62.80
2018-09-15T21:00:58.480Z,62.03
2018-09-15T21:03:27.285Z,62.39
2018-09-15T21:05:55.962Z,62.87
2018-09-15T21:08:24.623Z,62.81
2018-09-15T21:10:53.274Z,62.77
2018-09-15T21:13:21.936Z,62.18
2018-09-15T21:15:50.908Z,62.40
2018-09-15T21:18:19.559Z,62.43
2018-09-15T21:20:48.407Z,62.35
2018-09-15T21:23:17.078Z,62.48
2018-09-15T21:25:45.836Z,62.42
2018-09-15T21:28:14.526Z,63.14
2018-09-15T21:30:43.221Z,63.01
2018-09-15T21:33:11.882Z,63.40
2018-09-15T21:35:40.636Z,63.12
2018-09-15T21:38:09.318Z,63.09
2018-09-15T21:40:38.002Z,62.63
2018-09-15T21:43:06.714Z,62.79
2018-09-15T21:45:35.392Z,63.38
2018-09-15T21:48:04.037Z,62.69
2018-09-15T21:50:32.749Z,63.17
2018-09-15T21:53:01.396Z,62.89
2018-09-15T21:55:30.052Z,62.80
2018-09-15T21:57:58.723Z,63.00
2018-09-15T22:00:27.376Z,63.53
2018-09-15T22:02:56.043Z,63.90
2018-09-15T22:05:24.709Z,64.39
2018-09-15T22:07:53.362Z,64.26
2018-09-15T22:10:22.028Z,63.83
2018-09-15T22:12:50.679Z,64.08
2018-09-15T22:15:23.633Z,64.25
2018-09-15T22:17:52.386Z,64.03
2018-09-15T22:20:21.227Z,64.96
2018-09-15T22:22:50.006Z,64.29
2018-09-15T22:25:18.834Z,65.11
2018-09-15T22:27:48.113Z,65.23
2018-09-15T22:30:18.204Z,64.86
2018-09-15T22:32:46.881Z,65.62
2018-09-15T22:35:18.410Z,64.72
2018-09-15T22:37:47.328Z,65.21
2018-09-15T22:40:16.018Z,65.10
2018-09-15T22:42:44.708Z,65.58
2018-09-15T22:45:13.370Z,65.67
2018-09-15T22:47:42.053Z,65.32
2018-09-15T22:50:10.797Z,65.48
2018-09-15T22:52:39.454Z,66.21
2018-09-15T22:55:08.228Z,66.71
2018-09-15T22:57:37.111Z,66.96
2018-09-15T23:00:06.865Z,66.52
2018-09-15T23:02:35.516Z,66.91
2018-09-15T23:05:04.272Z,67.82
2018-09-15T23:07:33.002Z,67.64
2018-09-15T23:10:01.805Z,68.00
2018-09-15T23:12:30.483Z,67.38
2018-09-15T23:14:59.247Z,68.14
2018-09-15T23:17:27.928Z,68.04
2018-09-15T23:19:56.590Z,67.51
2018-09-15T23:22:25.284Z,68.18
2018-09-15T23:24:54.007Z,67.78
2018-09-15T23:27:22.635Z,68.43
2018-09-15T23:29:51.274Z,68.46
2018-09-15T23:32:19.919Z,68.51
2018-09-15T23:34:48.584Z,68.85
2018-09-15T23:37:17.237Z,69.24
2018-09-15T23:39:45.940Z,68.87
2018-09-15T23:42:14.700Z,69.53
2018-09-15T23:44:43.368Z,68.57
2018-09-15T23:47:12.028Z,69.16
2018-09-15T23:49:40.691Z,69.36
2018-09-15T23:52:09.385Z,69.28
2018-09-15T23:54:38.039Z,70.15
2018-09-15T23:57:06.794Z,69.63
2018-09-15T23:59:35.455Z,69.66
